sensor_id;sensor_type;location;lat;lon;timestamp;pressure;altitude;pressure_sealevel;temperature;humidity
63035;BME280;59750;53.356;-1.458;2022-09-25T00:00:43;101168.34;;;6.26;92.65
63035;BME280;59750;53.356;-1.458;2022-09-25T00:03:11;101161.56;;;6.22;92.77
63035;BME280;59750;53.356;-1.458;2022-09-25T00:05:39;101150.41;;;6.18;92.34
63035;BME280;59750;53.356;-1.458;2022-09-25T00:08:06;101160.97;;;6.15;92.67
63035;BME280;59750;53.356;-1.458;2022-09-25T00:10:33;101161.97;;;6.12;92.87
63035;BME280;59750;53.356;-1.458;2022-09-25T00:13:00;101164.72;;;6.09;92.27
63035;BME280;59750;53.356;-1.458;2022-09-25T00:15:26;101163.13;;;6.05;92.78
63035;BME280;59750;53.356;-1.458;2022-09-25T00:17:52;101166.72;;;6.03;92.54
63035;BME280;59750;53.356;-1.458;2022-09-25T00:20:19;101172.91;;;6.00;92.16
63035;BME280;59750;53.356;-1.458;2022-09-25T00:22:46;101172.25;;;5.95;92.45
63035;BME280;59750;53.356;-1.458;2022-09-25T00:25:13;101169.88;;;5.89;92.25
63035;BME280;59750;53.356;-1.458;2022-09-25T00:27:41;101163.94;;;5.85;92.67
63035;BME280;59750;53.356;-1.458;2022-09-25T00:30:09;101171.84;;;5.84;92.41
63035;BME280;59750;53.356;-1.458;2022-09-25T00:32:36;101160.59;;;5.82;92.33
63035;BME280;59750;53.356;-1.458;2022-09-25T00:35:03;101171.19;;;5.79;92.23
63035;BME280;59750;53.356;-1.458;2022-09-25T00:37:32;101172.19;;;5.75;92.12
63035;BME280;59750;53.356;-1.458;2022-09-25T00:39:58;101165.53;;;5.68;92.30
63035;BME280;59750;53.356;-1.458;2022-09-25T00:42:24;101166.38;;;5.68;92.80
63035;BME280;59750;53.356;-1.458;2022-09-25T00:53:18;101166.16;;;5.52;92.06
63035;BME280;59750;53.356;-1.458;2022-09-25T00:55:45;101165.72;;;5.41;92.87
63035;BME280;59750;53.356;-1.458;2022-09-25T00:58:14;101164.81;;;5.42;93.18
63035;BME280;59750;53.356;-1.458;2022-09-25T01:00:43;101168.34;;;5.41;93.32
63035;BME280;59750;53.356;-1.458;2022-09-25T01:03:08;101167.53;;;5.39;92.48
63035;BME280;59750;53.356;-1.458;2022-09-25T01:05:39;101157.22;;;5.36;92.93
63035;BME280;59750;53.356;-1.458;2022-09-25T01:08:08;101162.50;;;5.35;92.21
63035;BME280;59750;53.356;-1.458;2022-09-25T01:10:39;101159.97;;;5.33;92.92
63035;BME280;59750;53.356;-1.458;2022-09-25T01:13:06;101160.09;;;5.30;92.11
63035;BME280;59750;53.356;-1.458;2022-09-25T01:15:41;101161.06;;;5.27;92.99
63035;BME280;59750;53.356;-1.458;2022-09-25T01:21:04;101154.41;;;5.19;91.90
63035;BME280;59750;53.356;-1.458;2022-09-25T01:29:14;101153.88;;;5.11;91.91
63035;BME280;59750;53.356;-1.458;2022-09-25T01:40:09;101143.81;;;5.02;92.69
63035;BME280;59750;53.356;-1.458;2022-09-25T01:42:57;101155.28;;;4.97;91.98
63035;BME280;59750;53.356;-1.458;2022-09-25T01:45:32;101148.50;;;4.92;92.65
63035;BME280;59750;53.356;-1.458;2022-09-25T01:48:02;101145.97;;;4.90;92.19
63035;BME280;59750;53.356;-1.458;2022-09-25T01:50:42;101142.56;;;4.88;92.88
63035;BME280;59750;53.356;-1.458;2022-09-25T01:53:15;101132.25;;;4.85;93.19
63035;BME280;59750;53.356;-1.458;2022-09-25T01:55:49;101130.63;;;4.83;92.43
63035;BME280;59750;53.356;-1.458;2022-09-25T01:58:45;101135.03;;;4.81;93.36
63035;BME280;59750;53.356;-1.458;2022-09-25T02:01:20;101134.31;;;4.77;92.89
63035;BME280;59750;53.356;-1.458;2022-09-25T02:03:53;101127.53;;;4.73;93.19
63035;BME280;59750;53.356;-1.458;2022-09-25T02:06:22;101123.22;;;4.72;92.44
63035;BME280;59750;53.356;-1.458;2022-09-25T02:11:40;101127.78;;;4.65;92.57
63035;BME280;59750;53.356;-1.458;2022-09-25T02:14:14;101134.88;;;4.62;92.26
63035;BME280;59750;53.356;-1.458;2022-09-25T02:16:43;101120.25;;;4.58;92.36
63035;BME280;59750;53.356;-1.458;2022-09-25T02:19:15;101121.22;;;4.55;92.96
63035;BME280;59750;53.356;-1.458;2022-09-25T02:22:07;101129.94;;;4.54;92.27
63035;BME280;59750;53.356;-1.458;2022-09-25T02:24:56;101127.44;;;4.51;92.66
63035;BME280;59750;53.356;-1.458;2022-09-25T02:27:23;101132.78;;;4.48;92.32
63035;BME280;59750;53.356;-1.458;2022-09-25T02:29:52;101129.38;;;4.46;92.42
63035;BME280;59750;53.356;-1.458;2022-09-25T02:32:21;101137.25;;;4.45;93.21
63035;BME280;59750;53.356;-1.458;2022-09-25T02:34:51;101129.44;;;4.45;93.38
63035;BME280;59750;53.356;-1.458;2022-09-25T02:37:17;101120.72;;;4.46;93.63
63035;BME280;59750;53.356;-1.458;2022-09-25T02:39:47;101118.00;;;4.49;94.56
63035;BME280;59750;53.356;-1.458;2022-09-25T02:57:43;101114.13;;;4.59;100.00
63035;BME280;59750;53.356;-1.458;2022-09-25T03:00:12;101105.16;;;4.68;100.00
63035;BME280;59750;53.356;-1.458;2022-09-25T03:02:39;101118.78;;;4.74;100.00
63035;BME280;59750;53.356;-1.458;2022-09-25T03:05:10;101103.69;;;4.82;100.00
63035;BME280;59750;53.356;-1.458;2022-09-25T03:07:38;101109.59;;;4.87;100.00
63035;BME280;59750;53.356;-1.458;2022-09-25T03:10:23;101100.63;;;4.94;100.00
63035;BME280;59750;53.356;-1.458;2022-09-25T03:12:50;101096.09;;;5.00;100.00
63035;BME280;59750;53.356;-1.458;2022-09-25T03:15:17;101097.66;;;5.04;100.00
63035;BME280;59750;53.356;-1.458;2022-09-25T03:17:43;101093.19;;;5.07;100.00
63035;BME280;59750;53.356;-1.458;2022-09-25T03:20:09;101089.53;;;5.11;100.00
63035;BME280;59750;53.356;-1.458;2022-09-25T03:22:35;101085.94;;;5.14;100.00
63035;BME280;59750;53.356;-1.458;2022-09-25T03:25:03;101092.75;;;5.18;100.00
63035;BME280;59750;53.356;-1.458;2022-09-25T03:27:30;101090.88;;;5.21;100.00
63035;BME280;59750;53.356;-1.458;2022-09-25T03:29:56;101087.25;;;5.25;100.00
63035;BME280;59750;53.356;-1.458;2022-09-25T03:32:21;101081.97;;;5.27;100.00
63035;BME280;59750;53.356;-1.458;2022-09-25T03:34:48;101081.81;;;5.30;100.00
63035;BME280;59750;53.356;-1.458;2022-09-25T03:37:15;101081.69;;;5.33;100.00
63035;BME280;59750;53.356;-1.458;2022-09-25T03:39:42;101078.97;;;5.36;100.00
63035;BME280;59750;53.356;-1.458;2022-09-25T03:42:08;101072.84;;;5.37;100.00
63035;BME280;59750;53.356;-1.458;2022-09-25T03:44:34;101071.00;;;5.39;100.00
63035;BME280;59750;53.356;-1.458;2022-09-25T03:47:01;101074.41;;;5.41;100.00
63035;BME280;59750;53.356;-1.458;2022-09-25T03:49:26;101077.78;;;5.43;100.00
63035;BME280;59750;53.356;-1.458;2022-09-25T03:51:53;101075.97;;;5.45;100.00
63035;BME280;59750;53.356;-1.458;2022-09-25T03:54:19;101067.19;;;5.48;100.00
63035;BME280;59750;53.356;-1.458;2022-09-25T03:56:45;101070.66;;;5.48;100.00
63035;BME280;59750;53.356;-1.458;2022-09-25T03:59:12;101078.41;;;5.50;100.00
63035;BME280;59750;53.356;-1.458;2022-09-25T04:01:37;101078.34;;;5.51;100.00
63035;BME280;59750;53.356;-1.458;2022-09-25T04:04:08;101078.28;;;5.53;100.00
63035;BME280;59750;53.356;-1.458;2022-09-25T04:06:33;101080.75;;;5.56;100.00
63035;BME280;59750;53.356;-1.458;2022-09-25T04:09:00;101075.47;;;5.57;100.00
63035;BME280;59750;53.356;-1.458;2022-09-25T04:11:26;101075.41;;;5.59;100.00
63035;BME280;59750;53.356;-1.458;2022-09-25T04:13:51;101074.44;;;5.62;100.00
63035;BME280;59750;53.356;-1.458;2022-09-25T04:16:17;101076.13;;;5.63;100.00
63035;BME280;59750;53.356;-1.458;2022-09-25T04:18:45;101077.75;;;5.65;100.00
63035;BME280;59750;53.356;-1.458;2022-09-25T04:21:13;101075.09;;;5.67;100.00
63035;BME280;59750;53.356;-1.458;2022-09-25T04:23:40;101082.00;;;5.68;100.00
63035;BME280;59750;53.356;-1.458;2022-09-25T04:26:07;101077.56;;;5.70;100.00
63035;BME280;59750;53.356;-1.458;2022-09-25T04:28:34;101076.59;;;5.72;100.00
63035;BME280;59750;53.356;-1.458;2022-09-25T04:31:00;101064.38;;;5.73;100.00
63035;BME280;59750;53.356;-1.458;2022-09-25T04:33:26;101067.78;;;5.75;100.00
63035;BME280;59750;53.356;-1.458;2022-09-25T04:36:11;101060.75;;;5.77;100.00
63035;BME280;59750;53.356;-1.458;2022-09-25T04:38:37;101058.06;;;5.78;100.00
63035;BME280;59750;53.356;-1.458;2022-09-25T04:41:03;101052.78;;;5.80;100.00
63035;BME280;59750;53.356;-1.458;2022-09-25T04:43:31;101051.88;;;5.81;100.00
63035;BME280;59750;53.356;-1.458;2022-09-25T04:46:03;101052.72;;;5.81;100.00
63035;BME280;59750;53.356;-1.458;2022-09-25T04:48:30;101044.81;;;5.83;100.00
63035;BME280;59750;53.356;-1.458;2022-09-25T04:50:57;101050.88;;;5.83;100.00
63035;BME280;59750;53.356;-1.458;2022-09-25T04:53:26;101051.72;;;5.84;100.00
63035;BME280;59750;53.356;-1.458;2022-09-25T04:55:58;101043.91;;;5.84;100.00
63035;BME280;59750;53.356;-1.458;2022-09-25T04:58:25;101036.06;;;5.84;100.00
63035;BME280;59750;53.356;-1.458;2022-09-25T05:00:51;101038.59;;;5.85;100.00
63035;BME280;59750;53.356;-1.458;2022-09-25T05:03:18;101032.53;;;5.85;100.00
63035;BME280;59750;53.356;-1.458;2022-09-25T05:05:44;101030.84;;;5.84;100.00
63035;BME280;59750;53.356;-1.458;2022-09-25T05:08:10;101024.91;;;5.80;100.00
63035;BME280;59750;53.356;-1.458;2022-09-25T05:10:37;101020.66;;;5.78;100.00
63035;BME280;59750;53.356;-1.458;2022-09-25T05:13:06;101028.69;;;5.73;100.00
63035;BME280;59750;53.356;-1.458;2022-09-25T05:15:33;101020.13;;;5.70;100.00
63035;BME280;59750;53.356;-1.458;2022-09-25T05:18:07;101021.19;;;5.66;100.00
63035;BME280;59750;53.356;-1.458;2022-09-25T05:20:36;101019.63;;;5.62;100.00
63035;BME280;59750;53.356;-1.458;2022-09-25T05:23:02;101010.31;;;5.56;100.00
63035;BME280;59750;53.356;-1.458;2022-09-25T05:25:30;101022.63;;;5.52;100.00
63035;BME280;59750;53.356;-1.458;2022-09-25T05:27:58;101021.94;;;5.47;100.00
63035;BME280;59750;53.356;-1.458;2022-09-25T05:30:28;101027.31;;;5.44;100.00
63035;BME280;59750;53.356;-1.458;2022-09-25T05:32:55;101019.53;;;5.43;100.00
63035;BME280;59750;53.356;-1.458;2022-09-25T05:35:24;101015.31;;;5.40;100.00
63035;BME280;59750;53.356;-1.458;2022-09-25T05:37:51;101027.50;;;5.40;100.00
63035;BME280;59750;53.356;-1.458;2022-09-25T05:40:20;101017.91;;;5.40;100.00
63035;BME280;59750;53.356;-1.458;2022-09-25T05:42:51;101010.09;;;5.40;100.00
63035;BME280;59750;53.356;-1.458;2022-09-25T05:45:19;101015.31;;;5.40;100.00
63035;BME280;59750;53.356;-1.458;2022-09-25T05:47:46;101019.53;;;5.43;100.00
63035;BME280;59750;53.356;-1.458;2022-09-25T05:50:14;101016.88;;;5.44;100.00
63035;BME280;59750;53.356;-1.458;2022-09-25T05:52:41;101021.19;;;5.45;100.00
63035;BME280;59750;53.356;-1.458;2022-09-25T05:55:08;101015.88;;;5.47;100.00
63035;BME280;59750;53.356;-1.458;2022-09-25T05:57:36;101009.78;;;5.48;100.00
63035;BME280;59750;53.356;-1.458;2022-09-25T06:00:05;101021.84;;;5.50;100.00
63035;BME280;59750;53.356;-1.458;2022-09-25T06:02:33;101008.75;;;5.52;100.00
63035;BME280;59750;53.356;-1.458;2022-09-25T06:04:59;101012.97;;;5.54;100.00
63035;BME280;59750;53.356;-1.458;2022-09-25T06:07:25;101009.38;;;5.57;100.00
63035;BME280;59750;53.356;-1.458;2022-09-25T06:09:51;101007.50;;;5.61;100.00
63035;BME280;59750;53.356;-1.458;2022-09-25T06:12:17;101009.06;;;5.65;100.00
63035;BME280;59750;53.356;-1.458;2022-09-25T06:14:45;101009.91;;;5.65;100.00
63035;BME280;59750;53.356;-1.458;2022-09-25T06:17:11;101008.91;;;5.68;100.00
63035;BME280;59750;53.356;-1.458;2022-09-25T06:19:38;101011.53;;;5.68;100.00
63035;BME280;59750;53.356;-1.458;2022-09-25T06:22:04;101014.84;;;5.71;100.00
63035;BME280;59750;53.356;-1.458;2022-09-25T06:24:30;101015.69;;;5.72;100.00
63035;BME280;59750;53.356;-1.458;2022-09-25T06:26:56;101012.16;;;5.73;100.00
63035;BME280;59750;53.356;-1.458;2022-09-25T06:29:22;101020.78;;;5.75;100.00
63035;BME280;59750;53.356;-1.458;2022-09-25T06:31:48;101017.28;;;5.76;100.00
63035;BME280;59750;53.356;-1.458;2022-09-25T06:34:16;101018.00;;;5.79;100.00
63035;BME280;59750;53.356;-1.458;2022-09-25T06:36:42;101011.78;;;5.82;100.00
63035;BME280;59750;53.356;-1.458;2022-09-25T06:39:08;101009.09;;;5.83;100.00
63035;BME280;59750;53.356;-1.458;2022-09-25T06:41:34;101008.06;;;5.87;100.00
63035;BME280;59750;53.356;-1.458;2022-09-25T06:44:00;101013.16;;;5.91;100.00
63035;BME280;59750;53.356;-1.458;2022-09-25T06:46:27;101012.13;;;5.95;100.00
63035;BME280;59750;53.356;-1.458;2022-09-25T06:48:54;101005.91;;;5.97;100.00
63035;BME280;59750;53.356;-1.458;2022-09-25T06:51:23;101005.75;;;6.00;100.00
63035;BME280;59750;53.356;-1.458;2022-09-25T06:53:53;101001.28;;;6.04;100.00
63035;BME280;59750;53.356;-1.458;2022-09-25T06:56:20;101008.00;;;6.09;100.00
63035;BME280;59750;53.356;-1.458;2022-09-25T06:58:47;101005.09;;;6.15;100.00
63035;BME280;59750;53.356;-1.458;2022-09-25T07:01:13;101007.41;;;6.22;100.00
63035;BME280;59750;53.356;-1.458;2022-09-25T07:03:40;101007.13;;;6.28;100.00
63035;BME280;59750;53.356;-1.458;2022-09-25T07:06:16;101007.66;;;6.36;100.00
63035;BME280;59750;53.356;-1.458;2022-09-25T07:08:43;101003.06;;;6.41;100.00
63035;BME280;59750;53.356;-1.458;2022-09-25T07:11:13;100998.47;;;6.46;100.00
63035;BME280;59750;53.356;-1.458;2022-09-25T07:13:40;100999.84;;;6.53;100.00
63035;BME280;59750;53.356;-1.458;2022-09-25T07:16:11;101007.38;;;6.61;100.00
63035;BME280;59750;53.356;-1.458;2022-09-25T07:18:39;100999.28;;;6.65;100.00
63035;BME280;59750;53.356;-1.458;2022-09-25T07:21:11;100999.84;;;6.72;100.00
63035;BME280;59750;53.356;-1.458;2022-09-25T07:23:38;101001.25;;;6.79;100.00
63035;BME280;59750;53.356;-1.458;2022-09-25T07:26:07;100999.31;;;6.82;100.00
63035;BME280;59750;53.356;-1.458;2022-09-25T07:28:35;100998.91;;;6.92;100.00
63035;BME280;59750;53.356;-1.458;2022-09-25T07:31:21;100988.91;;;7.00;100.00
63035;BME280;59750;53.356;-1.458;2022-09-25T07:33:48;100987.50;;;7.10;100.00
63035;BME280;59750;53.356;-1.458;2022-09-25T07:36:15;101000.94;;;7.21;100.00
63035;BME280;59750;53.356;-1.458;2022-09-25T07:38:42;100990.59;;;7.35;100.00
63035;BME280;59750;53.356;-1.458;2022-09-25T07:41:12;100995.25;;;7.48;100.00
63035;BME280;59750;53.356;-1.458;2022-09-25T07:43:38;100986.81;;;7.58;100.00
63035;BME280;59750;53.356;-1.458;2022-09-25T07:46:08;100991.66;;;7.66;100.00
63035;BME280;59750;53.356;-1.458;2022-09-25T07:48:35;100986.88;;;7.74;100.00
63035;BME280;59750;53.356;-1.458;2022-09-25T07:51:06;100980.47;;;7.80;100.00
63035;BME280;59750;53.356;-1.458;2022-09-25T07:53:32;100984.47;;;7.87;100.00
63035;BME280;59750;53.356;-1.458;2022-09-25T07:55:59;100978.13;;;7.91;100.00
63035;BME280;59750;53.356;-1.458;2022-09-25T07:58:27;100982.22;;;7.96;100.00
63035;BME280;59750;53.356;-1.458;2022-09-25T08:00:58;100985.28;;;8.04;100.00
63035;BME280;59750;53.356;-1.458;2022-09-25T08:03:26;100984.00;;;8.12;100.00
63035;BME280;59750;53.356;-1.458;2022-09-25T08:05:59;100972.13;;;8.22;100.00
63035;BME280;59750;53.356;-1.458;2022-09-25T08:08:27;100976.84;;;8.31;100.00
63035;BME280;59750;53.356;-1.458;2022-09-25T08:11:00;100973.66;;;8.42;100.00
63035;BME280;59750;53.356;-1.458;2022-09-25T08:13:28;100977.41;;;8.53;100.00
63035;BME280;59750;53.356;-1.458;2022-09-25T08:15:55;100971.47;;;8.65;100.00
63035;BME280;59750;53.356;-1.458;2022-09-25T08:18:21;100971.88;;;8.74;100.00
63035;BME280;59750;53.356;-1.458;2022-09-25T08:20:48;100968.38;;;8.89;100.00
63035;BME280;59750;53.356;-1.458;2022-09-25T08:23:14;100972.25;;;8.97;100.00
63035;BME280;59750;53.356;-1.458;2022-09-25T08:25:40;100961.25;;;9.07;100.00
63035;BME280;59750;53.356;-1.458;2022-09-25T08:28:06;100952.16;;;9.12;100.00
63035;BME280;59750;53.356;-1.458;2022-09-25T08:30:32;100951.63;;;9.21;100.00
63035;BME280;59750;53.356;-1.458;2022-09-25T08:32:59;100943.56;;;9.24;100.00
63035;BME280;59750;53.356;-1.458;2022-09-25T08:35:25;100936.47;;;9.41;100.00
63035;BME280;59750;53.356;-1.458;2022-09-25T08:37:52;100948.84;;;9.53;100.00
63035;BME280;59750;53.356;-1.458;2022-09-25T08:40:21;100941.00;;;9.67;100.00
63035;BME280;59750;53.356;-1.458;2022-09-25T08:42:54;100946.25;;;9.81;100.00
63035;BME280;59750;53.356;-1.458;2022-09-25T08:45:40;100955.28;;;9.91;100.00
63035;BME280;59750;53.356;-1.458;2022-09-25T08:48:32;100945.22;;;9.98;100.00
63035;BME280;59750;53.356;-1.458;2022-09-25T08:51:19;100951.88;;;10.04;100.00
63035;BME280;59750;53.356;-1.458;2022-09-25T08:53:45;100947.16;;;10.09;100.00
63035;BME280;59750;53.356;-1.458;2022-09-25T08:56:13;100941.34;;;10.18;100.00
63035;BME280;59750;53.356;-1.458;2022-09-25T08:58:47;100934.06;;;10.23;100.00
63035;BME280;59750;53.356;-1.458;2022-09-25T09:01:22;100935.16;;;10.19;99.64
63035;BME280;59750;53.356;-1.458;2022-09-25T09:04:12;100928.00;;;10.35;100.00
63035;BME280;59750;53.356;-1.458;2022-09-25T09:06:40;100924.75;;;10.59;97.05
63035;BME280;59750;53.356;-1.458;2022-09-25T09:09:17;100915.56;;;10.91;98.16
63035;BME280;59750;53.356;-1.458;2022-09-25T09:12:09;100927.84;;;11.18;95.49
63035;BME280;59750;53.356;-1.458;2022-09-25T09:14:46;100919.41;;;11.76;96.15
63035;BME280;59750;53.356;-1.458;2022-09-25T09:17:17;100915.22;;;12.59;93.10
63035;BME280;59750;53.356;-1.458;2022-09-25T09:19:48;100911.06;;;13.03;82.81
63035;BME280;59750;53.356;-1.458;2022-09-25T09:22:20;100898.47;;;13.53;79.68
63035;BME280;59750;53.356;-1.458;2022-09-25T09:33:16;100883.06;;;17.75;65.15
63035;BME280;59750;53.356;-1.458;2022-09-25T09:35:50;100880.81;;;18.71;59.01
63035;BME280;59750;53.356;-1.458;2022-09-25T09:54:39;100847.50;;;18.93;55.77
63035;BME280;59750;53.356;-1.458;2022-09-25T09:57:21;100848.78;;;18.63;59.76
63035;BME280;59750;53.356;-1.458;2022-09-25T09:59:55;100850.31;;;18.56;60.40
63035;BME280;59750;53.356;-1.458;2022-09-25T10:02:42;100841.78;;;18.52;56.89
63035;BME280;59750;53.356;-1.458;2022-09-25T10:07:59;100833.03;;;18.60;57.64
63035;BME280;59750;53.356;-1.458;2022-09-25T10:10:35;100829.31;;;18.52;57.96
63035;BME280;59750;53.356;-1.458;2022-09-25T10:13:03;100831.53;;;18.21;59.22
63035;BME280;59750;53.356;-1.458;2022-09-25T10:18:01;100828.00;;;17.76;60.13
63035;BME280;59750;53.356;-1.458;2022-09-25T10:20:39;100822.78;;;17.47;61.50
63035;BME280;59750;53.356;-1.458;2022-09-25T10:25:42;100816.09;;;16.96;59.98
63035;BME280;59750;53.356;-1.458;2022-09-25T10:28:30;100821.03;;;16.52;63.09
63035;BME280;59750;53.356;-1.458;2022-09-25T10:30:58;100808.72;;;16.22;65.69
63035;BME280;59750;53.356;-1.458;2022-09-25T10:33:29;100806.31;;;15.90;66.08
63035;BME280;59750;53.356;-1.458;2022-09-25T10:35:56;100806.25;;;15.71;68.09
63035;BME280;59750;53.356;-1.458;2022-09-25T10:38:43;100812.84;;;15.56;67.36
63035;BME280;59750;53.356;-1.458;2022-09-25T10:41:14;100802.69;;;15.30;68.14
63035;BME280;59750;53.356;-1.458;2022-09-25T10:43:57;100803.34;;;15.13;69.83
63035;BME280;59750;53.356;-1.458;2022-09-25T10:46:27;100794.31;;;14.95;71.12
63035;BME280;59750;53.356;-1.458;2022-09-25T10:52:08;100793.94;;;14.58;72.14
63035;BME280;59750;53.356;-1.458;2022-09-25T10:54:35;100806.59;;;14.54;72.58
63035;BME280;59750;53.356;-1.458;2022-09-25T10:57:30;100787.88;;;14.35;73.30
63035;BME280;59750;53.356;-1.458;2022-09-25T11:00:00;100790.09;;;14.18;74.01
63035;BME280;59750;53.356;-1.458;2022-09-25T11:02:37;100789.91;;;13.99;70.09
63035;BME280;59750;53.356;-1.458;2022-09-25T11:05:12;100790.69;;;13.79;72.24
63035;BME280;59750;53.356;-1.458;2022-09-25T11:07:47;100785.06;;;13.61;71.74
63035;BME280;59750;53.356;-1.458;2022-09-25T11:10:19;100788.53;;;13.61;74.61
63035;BME280;59750;53.356;-1.458;2022-09-25T11:12:46;100787.56;;;13.63;73.83
63035;BME280;59750;53.356;-1.458;2022-09-25T11:15:18;100782.41;;;13.61;73.97
63035;BME280;59750;53.356;-1.458;2022-09-25T11:17:49;100778.69;;;13.75;74.36
63035;BME280;59750;53.356;-1.458;2022-09-25T11:25:45;100773.53;;;14.05;75.30
63035;BME280;59750;53.356;-1.458;2022-09-25T11:28:26;100757.41;;;14.08;74.09
63035;BME280;59750;53.356;-1.458;2022-09-25T11:31:00;100748.38;;;14.11;72.86
63035;BME280;59750;53.356;-1.458;2022-09-25T11:33:49;100740.59;;;14.09;72.61
63035;BME280;59750;53.356;-1.458;2022-09-25T11:36:21;100739.16;;;14.05;72.35
63035;BME280;59750;53.356;-1.458;2022-09-25T11:38:55;100733.41;;;14.00;73.11
63035;BME280;59750;53.356;-1.458;2022-09-25T11:41:44;100734.13;;;14.02;73.09
63035;BME280;59750;53.356;-1.458;2022-09-25T11:44:39;100728.97;;;14.01;73.42
63035;BME280;59750;53.356;-1.458;2022-09-25T11:47:31;100726.91;;;14.04;73.68
63035;BME280;59750;53.356;-1.458;2022-09-25T11:50:02;100725.69;;;14.08;73.30
63035;BME280;59750;53.356;-1.458;2022-09-25T11:52:36;100731.72;;;13.99;72.50
63035;BME280;59750;53.356;-1.458;2022-09-25T12:11:13;100713.84;;;13.37;76.69
63035;BME280;59750;53.356;-1.458;2022-09-25T12:16:31;100726.63;;;13.21;75.88
63035;BME280;59750;53.356;-1.458;2022-09-25T12:19:05;100715.28;;;13.08;77.57
63035;BME280;59750;53.356;-1.458;2022-09-25T12:27:50;100702.34;;;12.93;77.86
63035;BME280;59750;53.356;-1.458;2022-09-25T12:30:26;100684.56;;;12.95;76.85
63035;BME280;59750;53.356;-1.458;2022-09-25T12:33:09;100683.63;;;12.96;76.76
63035;BME280;59750;53.356;-1.458;2022-09-25T12:36:11;100667.75;;;13.08;77.30
63035;BME280;59750;53.356;-1.458;2022-09-25T12:38:47;100668.75;;;13.18;78.06
63035;BME280;59750;53.356;-1.458;2022-09-25T12:41:29;100677.81;;;13.36;77.97
63035;BME280;59750;53.356;-1.458;2022-09-25T12:44:06;100670.13;;;13.44;78.47
63035;BME280;59750;53.356;-1.458;2022-09-25T12:46:58;100660.03;;;13.49;74.56
63035;BME280;59750;53.356;-1.458;2022-09-25T12:49:47;100663.59;;;13.59;76.67
63035;BME280;59750;53.356;-1.458;2022-09-25T12:52:22;100659.84;;;13.73;78.45
63035;BME280;59750;53.356;-1.458;2022-09-25T12:54:59;100662.16;;;13.87;78.00
63035;BME280;59750;53.356;-1.458;2022-09-25T12:57:36;100662.00;;;14.00;77.51
63035;BME280;59750;53.356;-1.458;2022-09-25T13:00:20;100662.44;;;14.05;75.66
63035;BME280;59750;53.356;-1.458;2022-09-25T13:03:10;100661.47;;;14.06;76.12
63035;BME280;59750;53.356;-1.458;2022-09-25T13:06:03;100638.56;;;13.96;75.11
63035;BME280;59750;53.356;-1.458;2022-09-25T13:08:38;100638.50;;;13.86;76.77
63035;BME280;59750;53.356;-1.458;2022-09-25T13:11:23;100635.97;;;13.84;76.72
63035;BME280;59750;53.356;-1.458;2022-09-25T13:13:56;100632.75;;;13.81;77.88
63035;BME280;59750;53.356;-1.458;2022-09-25T13:16:24;100650.75;;;13.87;78.08
63035;BME280;59750;53.356;-1.458;2022-09-25T13:19:11;100644.03;;;13.83;77.41
63035;BME280;59750;53.356;-1.458;2022-09-25T13:22:00;100641.81;;;13.67;77.44
63035;BME280;59750;53.356;-1.458;2022-09-25T13:24:29;100633.81;;;13.57;78.82
63035;BME280;59750;53.356;-1.458;2022-09-25T13:26:59;100626.38;;;13.51;79.21
63035;BME280;59750;53.356;-1.458;2022-09-25T13:29:34;100616.78;;;13.50;78.82
63035;BME280;59750;53.356;-1.458;2022-09-25T13:32:23;100616.31;;;13.45;79.58
63035;BME280;59750;53.356;-1.458;2022-09-25T13:34:55;100613.94;;;13.42;79.38
63035;BME280;59750;53.356;-1.458;2022-09-25T13:37:26;100609.31;;;13.55;79.21
63035;BME280;59750;53.356;-1.458;2022-09-25T13:39:53;100592.19;;;13.71;78.48
63035;BME280;59750;53.356;-1.458;2022-09-25T13:42:42;100588.69;;;13.91;79.03
63035;BME280;59750;53.356;-1.458;2022-09-25T13:45:38;100592.44;;;14.09;77.64
63035;BME280;59750;53.356;-1.458;2022-09-25T13:48:32;100590.25;;;14.14;77.62
63035;BME280;59750;53.356;-1.458;2022-09-25T13:59:19;100559.69;;;13.80;75.14
63035;BME280;59750;53.356;-1.458;2022-09-25T14:09:43;100527.97;;;13.80;76.49
63035;BME280;59750;53.356;-1.458;2022-09-25T14:15:11;100532.69;;;13.76;77.42
63035;BME280;59750;53.356;-1.458;2022-09-25T14:17:42;100518.19;;;13.71;75.75
63035;BME280;59750;53.356;-1.458;2022-09-25T14:22:57;100514.22;;;13.65;76.01
63035;BME280;59750;53.356;-1.458;2022-09-25T14:25:29;100513.91;;;13.58;76.38
63035;BME280;59750;53.356;-1.458;2022-09-25T14:28:00;100523.56;;;13.48;75.86
63035;BME280;59750;53.356;-1.458;2022-09-25T14:30:28;100512.66;;;13.42;77.24
63035;BME280;59750;53.356;-1.458;2022-09-25T14:33:32;100506.00;;;13.26;77.04
63035;BME280;59750;53.356;-1.458;2022-09-25T14:41:32;100501.41;;;12.96;79.39
63035;BME280;59750;53.356;-1.458;2022-09-25T14:44:13;100496.63;;;12.90;78.76
63035;BME280;59750;53.356;-1.458;2022-09-25T14:46:46;100499.50;;;12.87;79.15
63035;BME280;59750;53.356;-1.458;2022-09-25T14:49:34;100495.81;;;12.90;80.38
63035;BME280;59750;53.356;-1.458;2022-09-25T14:52:08;100495.31;;;12.96;79.60
63035;BME280;59750;53.356;-1.458;2022-09-25T14:54:40;100483.25;;;13.03;78.60
63035;BME280;59750;53.356;-1.458;2022-09-25T14:57:08;100488.75;;;13.11;80.96
63035;BME280;59750;53.356;-1.458;2022-09-25T14:59:42;100472.31;;;13.08;80.60
63035;BME280;59750;53.356;-1.458;2022-09-25T15:02:22;100483.59;;;13.10;79.12
63035;BME280;59750;53.356;-1.458;2022-09-25T15:04:56;100485.00;;;13.14;80.04
63035;BME280;59750;53.356;-1.458;2022-09-25T15:07:24;100473.03;;;13.21;78.97
63035;BME280;59750;53.356;-1.458;2022-09-25T15:09:52;100464.41;;;13.19;78.67
63035;BME280;59750;53.356;-1.458;2022-09-25T15:12:43;100453.31;;;13.25;78.11
63035;BME280;59750;53.356;-1.458;2022-09-25T15:15:12;100450.84;;;13.33;78.41
63035;BME280;59750;53.356;-1.458;2022-09-25T15:20:18;100443.91;;;13.32;80.17
63035;BME280;59750;53.356;-1.458;2022-09-25T15:22:56;100439.41;;;13.23;79.81